Time;durP1;ratioP1;P1;durP2;ratioP2;P2;SDS_P1;SDS_P2;PMS_P1;PMS_P2;Temp;Humidity;BMP_temperature;BMP_pressure;BME280_temperature;BME280_humidity;BME280_pressure;Samples;Min_cycle;Max_cycle;Signal;HPM_P1;HPM_P2
2021/03/27 00:02:38;;;;;;;93.12;44.10;;;;;;;7.44;54.38;99275.30;2180942;80;21561;-72
2021/03/27 00:05:39;;;;;;;92.10;43.75;;;;;;;7.40;54.32;99273.72;2190404;80;21311;-73
2021/03/27 00:08:41;;;;;;;90.03;43.80;;;;;;;7.41;54.44;99278.47;2197207;80;21303;-72
2021/03/27 00:11:44;;;;;;;88.10;43.45;;;;;;;7.47;54.43;99276.94;2193636;80;21386;-73
2021/03/27 00:14:46;;;;;;;86.87;42.67;;;;;;;7.45;54.54;99273.53;2174238;80;21157;-73
2021/03/27 00:17:48;;;;;;;93.42;44.30;;;;;;;7.48;54.59;99279.08;2206043;80;21290;-72
2021/03/27 00:20:51;;;;;;;90.42;42.93;;;;;;;7.43;54.78;99274.06;2203475;79;21259;-72
2021/03/27 00:23:53;;;;;;;92.92;44.58;;;;;;;7.40;54.89;99270.27;2182827;80;21324;-72
2021/03/27 00:26:55;;;;;;;94.92;43.63;;;;;;;7.35;55.04;99266.98;2204032;80;21348;-72
2021/03/27 00:29:57;;;;;;;96.17;44.08;;;;;;;7.27;55.39;99272.06;2206547;80;21307;-72
2021/03/27 00:32:59;;;;;;;89.40;41.48;;;;;;;7.19;55.34;99266.30;2193939;80;21735;-73
2021/03/27 00:36:00;;;;;;;93.42;45.17;;;;;;;7.17;55.56;99273.78;2187969;80;21736;-72
2021/03/27 00:39:02;;;;;;;96.70;44.05;;;;;;;7.10;55.65;99266.67;2204638;79;21703;-73
2021/03/27 00:42:04;;;;;;;86.30;42.55;;;;;;;7.01;56.58;99269.63;2193368;80;21751;-73
2021/03/27 00:45:06;;;;;;;89.03;43.52;;;;;;;6.89;56.25;99265.75;2184480;80;21343;-73
2021/03/27 00:48:08;;;;;;;85.28;41.92;;;;;;;6.82;56.40;99267.73;2210302;79;21177;-73
2021/03/27 00:51:11;;;;;;;89.00;42.67;;;;;;;6.70;57.12;99264.31;2201583;80;21310;-73
2021/03/27 00:54:13;;;;;;;88.90;43.40;;;;;;;6.57;56.86;99263.46;2189259;80;21300;-73
2021/03/27 00:57:15;;;;;;;94.62;46.50;;;;;;;6.47;57.29;99262.58;2196726;80;21319;-72
2021/03/27 01:00:17;;;;;;;95.72;45.80;;;;;;;6.37;57.43;99256.84;2197871;80;21295;-72
2021/03/27 01:03:19;;;;;;;93.37;42.90;;;;;;;6.33;58.03;99256.56;2209560;80;21287;-73
2021/03/27 01:06:21;;;;;;;89.15;42.70;;;;;;;6.24;58.19;99254.68;2191456;80;21766;-72
2021/03/27 01:09:23;;;;;;;90.38;42.75;;;;;;;6.18;58.13;99251.47;2197083;80;21730;-73
2021/03/27 01:12:25;;;;;;;88.92;39.60;;;;;;;6.10;58.49;99243.08;2201578;80;21739;-73
2021/03/27 01:15:27;;;;;;;85.47;41.77;;;;;;;6.03;58.82;99243.73;2211697;80;21284;-73
2021/03/27 01:18:30;;;;;;;85.97;42.10;;;;;;;5.96;58.81;99233.98;2162420;80;21711;-73
2021/03/27 01:21:32;;;;;;;90.62;43.70;;;;;;;5.92;58.90;99244.09;2193142;80;21296;-73
2021/03/27 01:24:34;;;;;;;93.67;42.20;;;;;;;5.87;59.01;99240.33;2197564;80;21374;-72
2021/03/27 01:27:36;;;;;;;86.53;40.63;;;;;;;5.79;59.32;99235.87;2195541;80;21621;-72
2021/03/27 01:30:38;;;;;;;86.75;40.40;;;;;;;5.74;59.56;99235.16;2190571;79;22022;-72
2021/03/27 01:33:40;;;;;;;85.45;41.00;;;;;;;5.69;60.11;99238.39;2203245;80;21736;-73
2021/03/27 01:36:42;;;;;;;83.37;39.85;;;;;;;5.62;59.95;99235.14;2196478;80;21272;-72
2021/03/27 01:39:44;;;;;;;84.67;40.83;;;;;;;5.61;59.89;99233.44;2186346;80;21724;-73
2021/03/27 01:42:46;;;;;;;93.60;42.88;;;;;;;5.59;60.01;99231.78;2196711;79;21394;-73
2021/03/27 01:45:48;;;;;;;87.17;41.37;;;;;;;5.47;60.51;99225.25;2203657;78;21311;-73
2021/03/27 01:48:50;;;;;;;86.67;40.15;;;;;;;5.41;60.45;99229.36;2184431;79;21386;-72
2021/03/27 01:51:55;;;;;;;83.40;40.52;;;;;;;5.34;60.59;99227.41;2159337;81;21728;-73
2021/03/27 01:54:57;;;;;;;90.75;43.70;;;;;;;5.22;61.02;99214.36;2199879;80;21728;-73
2021/03/27 01:57:59;;;;;;;89.47;41.85;;;;;;;5.17;60.94;99218.42;2191552;80;21288;-73
2021/03/27 02:01:01;;;;;;;83.07;39.48;;;;;;;5.20;61.24;99216.14;2189322;80;21316;-73
2021/03/27 02:04:03;;;;;;;83.62;40.70;;;;;;;5.22;61.27;99223.92;2186197;80;21311;-73
2021/03/27 02:07:05;;;;;;;92.53;42.03;;;;;;;5.22;61.68;99220.86;2203907;80;21296;-73
2021/03/27 02:10:07;;;;;;;83.47;39.48;;;;;;;5.18;62.13;99214.06;2200818;80;21276;-73
2021/03/27 02:13:09;;;;;;;87.50;40.50;;;;;;;4.99;63.64;99222.91;2188975;80;21763;-73
2021/03/27 02:16:11;;;;;;;85.00;40.25;;;;;;;4.83;62.30;99217.34;2208891;80;21827;-74
2021/03/27 02:19:13;;;;;;;92.10;42.55;;;;;;;4.82;62.54;99214.34;2197136;80;21287;-73
2021/03/27 02:22:15;;;;;;;98.37;45.05;;;;;;;4.85;62.38;99219.44;2195594;80;21315;-73
2021/03/27 02:25:17;;;;;;;96.63;46.40;;;;;;;4.85;62.59;99218.98;2203117;80;21756;-73
2021/03/27 02:28:19;;;;;;;93.20;43.73;;;;;;;4.89;62.72;99218.91;2205164;80;21292;-73
2021/03/27 02:31:21;;;;;;;89.80;42.60;;;;;;;4.83;62.90;99223.38;2181757;80;21300;-73
2021/03/27 02:34:23;;;;;;;91.47;43.60;;;;;;;4.82;62.84;99222.13;2202225;80;21311;-73
2021/03/27 02:37:25;;;;;;;88.55;41.95;;;;;;;4.78;62.71;99221.83;2195775;80;21300;-73
2021/03/27 02:40:27;;;;;;;87.82;41.23;;;;;;;4.77;62.80;99222.72;2194204;80;21300;-73
2021/03/27 02:43:30;;;;;;;93.17;43.10;;;;;;;4.72;62.98;99219.42;2194456;79;21708;-73
2021/03/27 02:46:32;;;;;;;90.30;43.00;;;;;;;4.69;62.86;99217.30;2199142;80;21740;-73
2021/03/27 02:49:34;;;;;;;90.10;42.98;;;;;;;4.67;63.04;99219.11;2197859;80;21759;-73
2021/03/27 02:52:36;;;;;;;87.15;41.60;;;;;;;4.64;63.01;99221.81;2198022;80;21746;-73
2021/03/27 02:55:38;;;;;;;91.47;43.90;;;;;;;4.56;63.28;99208.19;2198351;79;21291;-73
2021/03/27 02:58:40;;;;;;;92.00;44.53;;;;;;;4.55;63.27;99206.48;2195923;79;21307;-73
2021/03/27 03:01:42;;;;;;;88.03;43.30;;;;;;;4.55;63.69;99214.73;2191697;80;21304;-73
2021/03/27 03:04:44;;;;;;;89.97;42.88;;;;;;;4.57;63.18;99213.80;2203338;80;21382;-72
2021/03/27 03:07:46;;;;;;;93.25;44.20;;;;;;;4.43;63.67;99215.50;2208316;80;21292;-73
2021/03/27 03:10:48;;;;;;;91.82;44.85;;;;;;;4.39;63.77;99217.78;2188321;80;21311;-73
2021/03/27 03:13:50;;;;;;;99.75;44.77;;;;;;;4.37;63.98;99210.92;2184021;80;21280;-73
2021/03/27 03:16:52;;;;;;;93.62;44.18;;;;;;;4.31;63.75;99206.33;2199215;80;21308;-73
2021/03/27 03:19:54;;;;;;;93.03;44.63;;;;;;;4.34;63.96;99201.04;2207775;80;21315;-73
2021/03/27 03:22:57;;;;;;;90.38;43.13;;;;;;;4.33;64.25;99197.20;2195002;80;21316;-73
2021/03/27 03:25:59;;;;;;;91.45;42.50;;;;;;;4.24;64.53;99194.84;2189374;80;21287;-73
2021/03/27 03:29:01;;;;;;;97.60;45.52;;;;;;;4.22;64.53;99188.86;2198832;78;21292;-73
2021/03/27 03:32:03;;;;;;;94.72;44.75;;;;;;;4.21;65.03;99184.56;2201762;80;21289;-74
2021/03/27 03:35:05;;;;;;;91.67;44.38;;;;;;;4.14;64.89;99184.74;2193618;79;21303;-73
2021/03/27 03:38:07;;;;;;;95.15;44.70;;;;;;;4.10;64.64;99179.23;2184878;80;21367;-73
2021/03/27 03:41:09;;;;;;;87.88;42.78;;;;;;;4.12;64.75;99178.77;2193698;80;21305;-73
2021/03/27 03:44:11;;;;;;;94.47;44.90;;;;;;;4.20;64.86;99182.88;2187118;80;21291;-73
2021/03/27 03:47:13;;;;;;;91.22;44.13;;;;;;;4.19;64.70;99173.38;2170194;80;21300;-73
2021/03/27 03:50:15;;;;;;;106.07;47.05;;;;;;;4.20;64.87;99173.33;2198182;80;21292;-73
2021/03/27 03:53:17;;;;;;;98.25;44.95;;;;;;;4.23;64.75;99175.00;2202212;80;21280;-73
2021/03/27 03:56:20;;;;;;;99.77;44.80;;;;;;;4.19;64.97;99174.67;2188788;80;21279;-73
2021/03/27 03:59:21;;;;;;;96.37;44.60;;;;;;;4.19;64.90;99171.63;2202017;80;21685;-73
2021/03/27 04:02:23;;;;;;;98.12;45.48;;;;;;;4.16;64.80;99168.66;2191772;80;21736;-73
2021/03/27 04:05:26;;;;;;;95.55;46.75;;;;;;;4.17;64.96;99165.64;2196773;80;21287;-73
2021/03/27 04:08:28;;;;;;;95.17;46.70;;;;;;;4.15;64.81;99167.41;2190756;80;21295;-73
2021/03/27 04:11:30;;;;;;;97.08;46.40;;;;;;;4.16;65.23;99161.33;2191194;80;21312;-73
2021/03/27 04:14:32;;;;;;;103.38;47.17;;;;;;;4.13;65.50;99158.38;2190212;80;21331;-73
2021/03/27 04:17:34;;;;;;;102.38;45.95;;;;;;;4.08;65.21;99157.67;2200864;80;21137;-73
2021/03/27 04:20:36;;;;;;;95.77;45.63;;;;;;;4.07;65.60;99156.42;2199752;80;21303;-73
2021/03/27 04:23:38;;;;;;;98.05;45.45;;;;;;;4.05;65.48;99160.36;2211445;80;21724;-73
2021/03/27 04:26:40;;;;;;;98.85;46.25;;;;;;;4.01;65.95;99158.75;2173927;80;21111;-73
2021/03/27 04:29:42;;;;;;;97.17;45.63;;;;;;;4.03;65.59;99158.24;2210848;79;21756;-73
2021/03/27 04:32:44;;;;;;;96.63;46.42;;;;;;;4.09;66.27;99158.05;2190169;80;21818;-73
2021/03/27 04:35:46;;;;;;;93.30;44.63;;;;;;;4.09;65.99;99153.31;2193136;80;21295;-73
2021/03/27 04:38:49;;;;;;;90.87;45.35;;;;;;;4.10;65.76;99155.87;2205853;80;21291;-73
2021/03/27 04:41:51;;;;;;;99.60;45.30;;;;;;;4.13;65.71;99166.62;2199191;80;21624;-73
2021/03/27 04:44:53;;;;;;;102.35;48.13;;;;;;;4.16;65.55;99163.47;2190272;80;21197;-73
2021/03/27 04:47:55;;;;;;;92.02;44.20;;;;;;;4.19;65.66;99166.89;2206469;79;21126;-73
2021/03/27 04:50:57;;;;;;;100.20;46.53;;;;;;;4.22;65.54;99162.90;2181968;80;21335;-73
2021/03/27 04:53:59;;;;;;;98.47;46.98;;;;;;;4.28;65.61;99164.88;2196466;80;21280;-73
2021/03/27 04:57:01;;;;;;;95.90;47.00;;;;;;;4.31;65.75;99164.78;2206956;80;21329;-73
2021/03/27 05:00:04;;;;;;;95.97;45.45;;;;;;;4.45;65.67;99163.50;2199568;80;21312;-73
2021/03/27 05:03:06;;;;;;;95.30;47.80;;;;;;;4.57;65.65;99163.13;2202125;80;21328;-73
2021/03/27 05:06:09;;;;;;;97.00;45.88;;;;;;;4.71;65.58;99161.84;2197892;80;21617;-73
2021/03/27 05:09:12;;;;;;;;;;;;;;;4.89;65.33;99173.41;2194797;80;21287;-73
2021/03/27 05:12:14;;;;;;;95.27;45.67;;;;;;;4.99;65.46;99167.85;2208974;80;20254;-73
2021/03/27 05:15:16;;;;;;;97.33;47.40;;;;;;;5.11;65.08;99168.35;2209011;80;21715;-73
2021/03/27 05:18:18;;;;;;;99.87;47.58;;;;;;;5.22;64.98;99166.25;2198721;80;21752;-72
2021/03/27 05:21:20;;;;;;;93.47;46.48;;;;;;;5.37;64.90;99167.47;2196553;80;21283;-72
2021/03/27 05:24:22;;;;;;;98.07;47.17;;;;;;;5.45;64.62;99164.16;2189033;80;21354;-72
2021/03/27 05:27:24;;;;;;;99.25;48.65;;;;;;;5.58;64.49;99159.38;2196566;80;21312;-72
2021/03/27 05:30:26;;;;;;;93.45;47.55;;;;;;;5.68;64.36;99157.30;2180221;80;21295;-72
2021/03/27 05:33:28;;;;;;;96.40;46.60;;;;;;;5.81;64.18;99161.62;2192792;80;21283;-72
2021/03/27 05:36:30;;;;;;;92.17;45.83;;;;;;;5.87;63.97;99157.48;2202580;80;21288;-72
2021/03/27 05:39:32;;;;;;;91.47;46.35;;;;;;;5.90;63.90;99154.33;2180194;80;21358;-72
2021/03/27 05:42:34;;;;;;;89.55;45.03;;;;;;;5.92;63.81;99154.27;2195084;79;21283;-72
2021/03/27 05:45:36;;;;;;;89.37;44.95;;;;;;;5.91;63.88;99149.96;2206812;80;21196;-72
2021/03/27 05:48:39;;;;;;;86.35;44.60;;;;;;;5.98;63.79;99147.56;2182669;80;21292;-72
2021/03/27 05:51:41;;;;;;;87.37;45.35;;;;;;;6.05;63.86;99144.28;2185980;80;21292;-72
2021/03/27 05:54:43;;;;;;;94.92;46.65;;;;;;;6.08;63.92;99140.26;2193265;80;21271;-72
2021/03/27 05:57:45;;;;;;;93.75;45.73;;;;;;;6.24;63.68;99147.03;2175858;81;21292;-72
2021/03/27 06:00:47;;;;;;;87.65;46.05;;;;;;;6.46;63.35;99149.65;2196835;80;21276;-72
2021/03/27 06:03:49;;;;;;;91.15;46.80;;;;;;;6.70;62.94;99155.66;2184663;80;21300;-72
2021/03/27 06:06:51;;;;;;;83.55;45.40;;;;;;;6.98;62.67;99146.71;2191451;80;21724;-72
2021/03/27 06:09:53;;;;;;;89.25;46.13;;;;;;;7.22;62.16;99147.45;2189288;80;21827;-72
2021/03/27 06:12:55;;;;;;;86.45;45.30;;;;;;;7.48;61.80;99144.19;2195955;80;21747;-72
2021/03/27 06:15:57;;;;;;;84.07;43.25;;;;;;;7.73;61.42;99149.20;2207797;81;21724;-71
2021/03/27 06:18:59;;;;;;;84.75;44.63;;;;;;;7.95;60.78;99146.47;2198189;80;21720;-72
2021/03/27 06:22:02;;;;;;;89.55;45.10;;;;;;;7.93;60.17;99141.79;2195338;80;21280;-71
2021/03/27 06:25:04;;;;;;;84.70;43.70;;;;;;;8.05;60.70;99144.30;2204275;80;21278;-72
2021/03/27 06:28:06;;;;;;;82.40;43.15;;;;;;;8.17;60.31;99135.52;2204366;80;21277;-72
2021/03/27 06:31:08;;;;;;;86.22;43.85;;;;;;;8.23;59.44;99134.78;2192521;80;21719;-71
2021/03/27 06:34:11;;;;;;;84.28;43.78;;;;;;;8.41;60.07;99133.52;2190066;80;21720;-72
2021/03/27 06:37:13;;;;;;;85.65;44.10;;;;;;;8.73;59.58;99137.70;2201590;80;21158;-71
2021/03/27 06:40:15;;;;;;;82.47;43.78;;;;;;;9.00;58.95;99129.80;2199820;80;21288;-72
2021/03/27 06:43:16;;;;;;;81.72;42.98;;;;;;;9.23;58.49;99128.27;2208926;80;21288;-72
2021/03/27 06:46:19;;;;;;;80.25;44.42;;;;;;;9.36;58.57;99122.31;2189989;80;21645;-71
2021/03/27 06:49:21;;;;;;;81.17;42.62;;;;;;;9.63;57.94;99127.06;2158820;80;21233;-71
2021/03/27 06:52:23;;;;;;;82.47;43.98;;;;;;;9.75;57.47;99122.95;2209033;80;21288;-71
2021/03/27 06:55:26;;;;;;;78.40;42.15;;;;;;;9.87;57.04;99121.00;2199138;80;21313;-71
2021/03/27 06:58:27;;;;;;;82.82;44.03;;;;;;;10.04;57.20;99120.53;2193233;80;21268;-71
2021/03/27 07:01:29;;;;;;;78.20;43.68;;;;;;;10.35;56.47;99118.43;2194874;80;21708;-71
2021/03/27 07:04:31;;;;;;;80.50;43.45;;;;;;;10.57;56.29;99119.41;2202176;80;21367;-71
2021/03/27 07:07:33;;;;;;;77.60;43.95;;;;;;;10.79;55.12;99111.63;2196936;80;21735;-71
2021/03/27 07:10:35;;;;;;;79.97;44.60;;;;;;;10.99;55.72;99112.23;2206065;81;21728;-71
2021/03/27 07:13:38;;;;;;;78.07;42.55;;;;;;;11.15;55.11;99110.88;2196444;80;21744;-71
2021/03/27 07:16:40;;;;;;;78.62;42.62;;;;;;;11.36;55.12;99111.39;2188707;80;21300;-71
2021/03/27 07:19:42;;;;;;;74.62;42.60;;;;;;;11.46;54.66;99106.44;2180417;80;21304;-72
2021/03/27 07:22:44;;;;;;;75.35;42.85;;;;;;;11.46;55.04;99114.31;2193406;80;21284;-71
2021/03/27 07:25:47;;;;;;;77.72;41.18;;;;;;;11.65;54.69;99112.73;2195727;80;21280;-72
2021/03/27 07:28:49;;;;;;;73.42;42.60;;;;;;;12.05;54.32;99119.05;2195704;80;21277;-71
2021/03/27 07:31:51;;;;;;;78.35;43.25;;;;;;;12.11;53.89;99116.48;2191172;80;21312;-71
2021/03/27 07:34:53;;;;;;;74.90;42.40;;;;;;;11.98;53.04;99112.45;2196389;80;21291;-72
2021/03/27 07:37:55;;;;;;;77.30;42.45;;;;;;;12.03;53.95;99108.25;2196154;80;21755;-71
2021/03/27 07:40:57;;;;;;;76.65;42.25;;;;;;;12.27;53.87;99108.02;2208918;80;21712;-72
2021/03/27 07:44:00;;;;;;;73.17;41.53;;;;;;;12.42;52.89;99102.72;2209173;80;21582;-72
2021/03/27 07:47:02;;;;;;;73.60;41.68;;;;;;;12.46;52.63;99103.73;2208944;80;21783;-72
2021/03/27 07:50:04;;;;;;;77.60;41.33;;;;;;;12.32;52.05;99097.20;2179365;80;21334;-71
2021/03/27 07:53:06;;;;;;;73.80;40.90;;;;;;;12.25;53.46;99098.05;2203987;79;21701;-71
2021/03/27 07:56:08;;;;;;;73.78;40.12;;;;;;;12.58;52.92;99092.88;2187680;80;21709;-71
2021/03/27 07:59:10;;;;;;;72.27;39.65;;;;;;;12.78;51.41;99092.05;2191474;80;21166;-71
2021/03/27 08:02:14;;;;;;;72.15;39.35;;;;;;;12.95;52.38;99090.45;2205318;80;21279;-71
2021/03/27 08:05:16;;;;;;;68.85;38.35;;;;;;;13.26;51.55;99091.50;2199089;80;21288;-72
2021/03/27 08:08:18;;;;;;;65.45;38.10;;;;;;;13.50;51.30;99095.60;2208992;80;21716;-71
2021/03/27 08:11:20;;;;;;;66.77;36.20;;;;;;;13.74;50.68;99089.11;2198879;80;21724;-71
2021/03/27 08:14:22;;;;;;;67.58;37.73;;;;;;;13.85;49.73;99094.97;2196117;80;21724;-71
2021/03/27 08:17:25;;;;;;;67.92;37.25;;;;;;;14.01;49.20;99099.51;2185993;79;21312;-71
2021/03/27 08:20:27;;;;;;;63.17;37.17;;;;;;;14.06;49.43;99095.70;2198009;80;21149;-71
2021/03/27 08:23:29;;;;;;;67.50;38.15;;;;;;;14.30;49.46;99099.70;2189014;80;21296;-72
2021/03/27 08:26:32;;;;;;;68.62;39.05;;;;;;;14.48;48.80;99093.55;2193359;80;21589;-71
2021/03/27 08:29:41;;;;;;;63.60;36.53;;;;;;;14.72;48.69;99086.53;2199139;80;21752;-72
2021/03/27 08:32:38;;;;;;;60.60;33.98;;;;;;;14.87;49.14;99087.17;2206150;80;21719;-71
2021/03/27 08:35:40;;;;;;;63.98;36.30;;;;;;;15.04;47.83;99082.41;2200841;80;21717;-71
2021/03/27 08:38:42;;;;;;;62.50;35.63;;;;;;;15.29;48.66;99075.28;2188630;80;21744;-72
2021/03/27 08:41:45;;;;;;;;;;;;;;;15.59;48.27;99076.87;2211888;80;21297;-71
2021/03/27 08:44:47;;;;;;;61.75;33.98;;;;;;;15.87;46.06;99070.75;2191233;80;20226;-71
2021/03/27 08:47:49;;;;;;;59.25;34.23;;;;;;;15.87;45.66;99071.25;2188977;80;21299;-71
2021/03/27 08:50:51;;;;;;;56.42;31.55;;;;;;;15.91;46.36;99070.05;2194654;80;21297;-72
2021/03/27 08:53:53;;;;;;;55.28;30.72;;;;;;;16.07;44.77;99063.05;2191474;80;21650;-71
2021/03/27 08:56:56;;;;;;;;;;;;;;;16.18;45.33;99053.77;2185129;80;21566;-72
2021/03/27 08:59:58;;;;;;;54.98;28.75;;;;;;;16.02;45.29;99054.63;2180129;80;20514;-72
2021/03/27 09:03:00;;;;;;;54.08;28.25;;;;;;;15.77;44.92;99042.00;2187419;80;21728;-72
2021/03/27 09:06:02;;;;;;;54.80;29.92;;;;;;;15.93;45.37;99054.42;2200994;80;21300;-72
2021/03/27 09:09:05;;;;;;;52.85;29.75;;;;;;;16.05;45.09;99051.27;2175881;81;21632;-72
2021/03/27 09:12:07;;;;;;;54.65;29.27;;;;;;;16.34;44.75;99053.86;2162632;80;21279;-72
2021/03/27 09:15:09;;;;;;;55.52;29.70;;;;;;;16.63;43.46;99047.48;2190235;80;21288;-72
2021/03/27 09:18:12;;;;;;;53.80;27.05;;;;;;;16.86;43.36;99042.92;2193752;80;21300;-72
2021/03/27 09:21:14;;;;;;;50.05;27.85;;;;;;;17.05;43.16;99038.30;2188372;80;21303;-72
2021/03/27 09:24:16;;;;;;;53.70;29.02;;;;;;;17.16;42.88;99037.37;2198077;79;21296;-72
2021/03/27 09:27:19;;;;;;;46.60;25.52;;;;;;;17.45;42.17;99023.42;2200832;80;21736;-72
2021/03/27 09:30:20;;;;;;;41.08;22.00;;;;;;;17.70;41.63;99026.59;2188016;80;21301;-72
2021/03/27 09:33:22;;;;;;;46.92;21.85;;;;;;;17.90;39.71;99030.14;2196759;80;21280;-72
2021/03/27 09:36:24;;;;;;;45.45;21.25;;;;;;;18.09;41.21;99024.92;2198819;80;21288;-71
2021/03/27 09:39:26;;;;;;;43.83;21.93;;;;;;;18.29;39.52;99023.14;2199212;80;21276;-72
2021/03/27 09:42:28;;;;;;;42.73;20.40;;;;;;;18.38;37.59;99023.30;2190575;80;21308;-71
2021/03/27 09:45:31;;;;;;;40.38;20.45;;;;;;;18.52;40.04;99018.89;2185273;80;21592;-72
2021/03/27 09:48:34;;;;;;;;;;;;;;;18.71;39.55;99012.73;2194520;80;21296;-72
2021/03/27 09:51:36;;;;;;;44.95;21.42;;;;;;;19.01;38.37;99007.75;2194166;81;20138;-72
2021/03/27 09:54:38;;;;;;;40.83;21.10;;;;;;;19.01;38.37;99007.75;2201407;79;21316;-72
2021/03/27 09:57:40;;;;;;;43.05;20.37;;;;;;;19.13;36.87;99003.59;2189806;80;21752;-72
2021/03/27 10:00:42;;;;;;;;;;;;;;;19.09;36.40;98998.22;2182685;79;21292;-71
2021/03/27 10:03:44;;;;;;;39.45;19.80;;;;;;;19.17;37.20;98993.03;2204802;81;20230;-72
2021/03/27 10:06:46;;;;;;;40.78;20.35;;;;;;;19.23;37.06;99003.58;2197848;80;21279;-72
2021/03/27 10:09:48;;;;;;;39.83;20.15;;;;;;;19.39;37.06;98995.80;2187029;80;21289;-72
2021/03/27 10:12:50;;;;;;;41.08;20.10;;;;;;;19.53;36.08;98991.34;2198681;80;21347;-72
2021/03/27 10:15:52;;;;;;;;;;;;;;;19.72;37.91;98990.90;2194206;80;21277;-72
2021/03/27 10:18:54;;;;;;;35.85;18.17;;;;;;;20.04;34.86;98989.62;2189305;80;20220;-72
2021/03/27 10:21:56;;;;;;;38.20;18.80;;;;;;;20.11;34.84;98987.20;2174729;80;21311;-71
2021/03/27 10:24:58;;;;;;;39.00;18.20;;;;;;;20.32;35.63;98981.59;2196692;80;21735;-72
2021/03/27 10:28:01;;;;;;;;;;;;;;;20.40;35.27;98981.64;2193732;80;21288;-72
2021/03/27 10:31:03;;;;;;;37.67;17.75;;;;;;;20.34;35.26;98981.78;2189858;80;20493;-71
2021/03/27 10:34:05;;;;;;;;;;;;;;;20.46;33.96;98975.72;2195723;80;21732;-72
2021/03/27 10:37:07;;;;;;;36.80;15.40;;;;;;;20.47;34.10;98988.53;2201752;80;20135;-72
2021/03/27 10:40:09;;;;;;;30.00;12.45;;;;;;;20.64;32.60;98972.20;2193686;80;21177;-72
2021/03/27 10:43:11;;;;;;;;;;;;;;;20.61;31.17;98974.67;2178150;80;21272;-72
2021/03/27 10:46:13;;;;;;;30.20;12.23;;;;;;;20.61;32.04;98986.66;2172549;80;20237;-72
2021/03/27 10:49:15;;;;;;;29.90;11.78;;;;;;;20.81;30.81;98970.53;2190006;80;21306;-72
2021/03/27 10:52:17;;;;;;;31.35;12.13;;;;;;;20.83;28.77;98967.19;2171705;81;21716;-72
2021/03/27 10:55:19;;;;;;;;;;;;;;;20.57;28.72;98973.30;2197702;80;21296;-71
2021/03/27 10:58:21;;;;;;;30.35;12.63;;;;;;;20.33;31.27;98968.11;2189125;79;20487;-72
2021/03/27 11:01:23;;;;;;;33.30;13.28;;;;;;;20.19;31.46;98969.47;2185570;80;21291;-72
2021/03/27 11:04:25;;;;;;;31.42;13.38;;;;;;;20.70;30.99;98962.27;2188346;79;21383;-72
2021/03/27 11:07:27;;;;;;;;;;;;;;;20.91;29.78;98960.09;2202504;80;21304;-72
2021/03/27 11:10:29;;;;;;;29.20;11.40;;;;;;;20.58;27.53;98963.81;2188880;80;20226;-72
2021/03/27 11:13:31;;;;;;;27.77;10.90;;;;;;;19.89;26.21;98970.16;2204298;81;21173;-71
2021/03/27 11:16:33;;;;;;;;;;;;;;;19.88;27.32;98972.50;2204616;80;21291;-72
2021/03/27 11:19:35;;;;;;;31.75;13.83;;;;;;;19.92;28.93;98975.69;2196316;80;20226;-72
2021/03/27 11:22:38;;;;;;;31.82;14.18;;;;;;;20.13;29.54;98970.56;2196843;80;21304;-72
2021/03/27 11:25:40;;;;;;;;;;;;;;;20.53;29.86;98963.94;2196125;79;21283;-72
2021/03/27 11:28:42;;;;;;;27.70;11.73;;;;;;;20.82;28.79;98955.70;2202774;80;20242;-72
2021/03/27 11:31:44;;;;;;;;;;;;;;;20.73;26.81;98982.80;2185876;81;21312;-72
2021/03/27 11:34:46;;;;;;;28.10;11.48;;;;;;;20.40;27.39;98969.66;2195864;80;20501;-72
2021/03/27 11:37:48;;;;;;;29.57;11.00;;;;;;;19.97;28.17;98978.75;2194245;80;21732;-71
2021/03/27 11:40:50;;;;;;;28.23;11.30;;;;;;;19.91;28.51;98966.02;2161603;80;21281;-72
2021/03/27 11:43:52;;;;;;;31.10;11.85;;;;;;;19.99;28.10;98967.45;2201304;81;21308;-72
2021/03/27 11:46:54;;;;;;;29.32;11.65;;;;;;;19.99;29.61;98970.11;2188232;80;21323;-72
2021/03/27 11:49:56;;;;;;;;;;;;;;;20.12;30.15;98971.58;2193105;80;21295;-72
2021/03/27 11:52:58;;;;;;;27.10;10.40;;;;;;;19.92;28.04;98979.68;2201041;80;20223;-72
2021/03/27 11:56:00;;;;;;;27.00;9.80;;;;;;;19.43;29.13;98965.28;2192908;80;21307;-71
2021/03/27 12:02:23;;;;;;;27.87;10.30;;;;;;;18.88;30.88;98959.39;2189732;80;21127;-72
2021/03/27 12:05:25;;;;;;;27.35;10.08;;;;;;;18.89;28.99;98971.67;2190950;79;21625;-72
2021/03/27 12:08:27;;;;;;;27.65;10.90;;;;;;;18.91;30.74;98966.25;2195169;80;21733;-72
2021/03/27 12:11:29;;;;;;;27.20;10.95;;;;;;;18.98;29.46;98976.14;2181017;80;21745;-74
2021/03/27 12:14:31;;;;;;;27.22;10.25;;;;;;;18.93;30.53;98961.61;2195325;80;21157;-70
2021/03/27 12:17:33;;;;;;;27.67;9.68;;;;;;;18.83;29.02;98989.50;2200354;80;21319;-73
2021/03/27 12:20:37;;;;;;;28.25;10.08;;;;;;;18.61;29.49;98997.30;2170548;81;21273;-75
2021/03/27 12:23:40;;;;;;;28.67;10.40;;;;;;;18.47;30.01;98981.28;2185383;80;21166;-76
2021/03/27 12:26:42;;;;;;;;;;;;;;;18.54;30.88;98975.75;2168812;80;21284;-69
2021/03/27 12:29:44;;;;;;;28.25;10.70;;;;;;;18.60;30.87;98992.45;2186744;80;20223;-69
2021/03/27 12:32:46;;;;;;;26.23;9.60;;;;;;;18.30;30.55;98983.67;2202258;80;21291;-69
2021/03/27 12:35:48;;;;;;;27.52;11.05;;;;;;;18.09;31.12;98984.28;2189156;80;21795;-71
2021/03/27 12:38:50;;;;;;;27.10;11.05;;;;;;;17.91;31.08;98994.71;2201982;80;21150;-72
2021/03/27 12:41:52;;;;;;;30.57;11.83;;;;;;;17.66;31.90;98998.19;2200109;80;21283;-75
2021/03/27 12:44:54;;;;;;;28.10;11.55;;;;;;;17.51;32.80;98992.89;2156016;80;21296;-77
2021/03/27 12:47:57;;;;;;;31.02;11.78;;;;;;;17.35;32.59;98998.19;2200416;80;21584;-74
2021/03/27 12:50:59;;;;;;;;;;;;;;;17.23;32.66;99001.41;2192626;80;21414;-73
2021/03/27 12:54:01;;;;;;;32.45;12.18;;;;;;;17.08;32.33;99010.20;2196932;80;20222;-72
2021/03/27 12:57:03;;;;;;;23.80;7.78;;;;;;;17.01;32.38;99036.88;2208229;80;21279;-72
2021/03/27 13:00:05;;;;;;;19.75;5.90;;;;;;;16.97;32.67;99041.57;2201749;80;21295;-74
2021/03/27 13:03:07;;;;;;;24.02;6.33;;;;;;;17.00;32.34;99022.43;2191077;80;21739;-73
2021/03/27 13:06:09;;;;;;;21.55;6.33;;;;;;;16.96;33.17;99041.70;2192151;80;21292;-73
2021/03/27 13:09:11;;;;;;;22.27;6.58;;;;;;;16.78;34.15;99056.81;2187907;80;21351;-73
2021/03/27 13:12:13;;;;;;;18.57;5.97;;;;;;;16.65;34.42;99043.38;2190709;79;21621;-73
2021/03/27 13:15:15;;;;;;;20.48;6.40;;;;;;;16.41;35.03;99077.54;2210144;80;21300;-73
2021/03/27 13:18:17;;;;;;;17.37;5.12;;;;;;;16.14;36.08;99076.64;2194692;80;21733;-73
2021/03/27 13:21:20;;;;;;;;;;;;;;;15.88;35.83;99071.62;2213763;79;21755;-73
2021/03/27 13:24:22;;;;;;;20.00;5.20;;;;;;;15.73;37.27;99073.16;2201160;80;20485;-73
2021/03/27 13:27:24;;;;;;;16.85;4.65;;;;;;;15.51;37.65;99073.97;2179933;80;21755;-73
2021/03/27 13:30:26;;;;;;;18.32;4.75;;;;;;;15.31;37.44;99083.92;2197256;80;21339;-73
2021/03/27 13:33:28;;;;;;;19.98;5.05;;;;;;;15.19;38.58;99081.26;2203251;80;21150;-73
2021/03/27 13:36:31;;;;;;;18.00;5.75;;;;;;;15.17;39.05;99083.19;2179132;80;21637;-72
2021/03/27 13:39:36;;;;;;;20.75;6.22;;;;;;;15.23;38.70;99090.64;2203168;80;21279;-72
2021/03/27 13:42:38;;;;;;;21.33;6.50;;;;;;;15.26;38.70;99077.67;2186019;80;21272;-73
2021/03/27 13:45:40;;;;;;;24.00;6.65;;;;;;;15.24;39.15;99084.41;2196498;80;21739;-73
2021/03/27 13:48:42;;;;;;;23.00;7.05;;;;;;;15.23;39.72;99072.63;2185873;80;21315;-73
2021/03/27 13:51:44;;;;;;;22.85;7.90;;;;;;;15.31;40.20;99069.39;2189049;80;21379;-73
2021/03/27 13:54:46;;;;;;;21.68;6.58;;;;;;;15.38;39.88;99071.92;2199608;80;21284;-73
2021/03/27 13:57:48;;;;;;;;;;;;;;;15.42;38.90;99082.13;2192880;80;21288;-72
2021/03/27 14:00:50;;;;;;;26.03;8.40;;;;;;;15.48;38.45;99077.34;2186964;80;20232;-72
2021/03/27 14:03:52;;;;;;;25.77;9.30;;;;;;;15.52;39.47;99068.22;2209447;80;21284;-72
2021/03/27 14:06:54;;;;;;;25.97;9.20;;;;;;;15.63;38.82;99068.69;2190994;80;21309;-73
2021/03/27 14:09:56;;;;;;;24.65;8.95;;;;;;;15.74;38.26;99064.73;2192736;80;21306;-72
2021/03/27 14:12:59;;;;;;;25.68;8.65;;;;;;;15.83;38.64;99073.31;2186341;80;21690;-71